Paute, Ecuador

9:38 AM ECT on December 05, 2016 (GMT -0500)
PAUTE AZUAY | | Change Station

Elev 7375 ft 2.86 °S, 78.80 °W | Updated 11 minutes ago

Thunderstorm
Thunderstorm
68.0 °F
Feels Like 68.0 °F
N
2.0
Wind Variable Wind from South
Gusts 7.0 mph

Today
High -- | Low -- °F
--% Chance of Precip.
Yesterday
High -- | Low -- °F
Precip. -- in
Pressure 30.33 in
Visibility 6.2 miles
Clouds Scattered Clouds 3300 ft
Dew Point 53 °F
Humidity 60%
Rainfall 0.00 in
Snow Depth Not available.
5:57 AM 6:14 PM
Waxing Crescent, 32% visible
METAR SECU 051400Z 04004KT 9999 SCT033 18/10 Q1027 NOSIG
Pressure 30.33 in
Visibility 6.2 miles
Clouds Scattered Clouds 3300 ft
Dew Point 53 °F
Humidity 60%
Rainfall 0.00 in
Snow Depth Not available.
5:57 AM 6:14 PM
Waxing Crescent, 32% visible
METAR SECU 051400Z 04004KT 9999 SCT033 18/10 Q1027 NOSIG

10-Day Weather Forecast

No radar image for this location.
×

Almanac

Astronomy

Dec. 05, 2016 Rise Set
Actual Time
Civil Twilight
Nautical Twilight
Astronomical Twilight
Moon
Length of Visible Light
Length of Day
Tomorrow will be .
, % of the Moon is Illuminated

Today's Extremes

Country Highs Country Lows

Community

WunderPhotos

Upload Photos

1,955,782 photos uploaded!

WunderBlog® & News

Nearby

Air Quality

  Air Quality AQ Index Pollutant
Not available.

Snow Depth

Station Depth Elevation

Earthquake Activity

City Distance Mag. Time & Date
Minimum magnitude displayed is 2.5.

Coastal Water Temperatures

Place Temperature

Stations

Nearby Weather Stations

Station Location Temp. Windchill Dew Point Humidity Wind Precip. Elev Updated Type